EKRK/RKE METAR and TAF weather

Enter ICAO airport designator
Station Type Date Time Source
EKRK METAR 2019/08/24 09:20 UTC NOAA

EKRK 240920Z AUTO 12003KT 9999 FEW024/// 21/15 Q1027


Station Type Date Time Source
EKRK Decoded METAR 2019/08/24 09:20 UTC NOAA

Station name not available
Aug 24, 2019 - 05:20 AM EDT / 2019.08.24 0920 UTC
Wind: from the ESE (120 degrees) at 3 MPH (3 KT):0
Visibility: greater than 7 mile(s):0
Sky conditions: mostly clear
Temperature: 69 F (21 C)
Dew Point: 59 F (15 C)
Relative Humidity: 68%
Pressure (altimeter): 30.33 in. Hg (1027 hPa)
ob: EKRK 240920Z AUTO 12003KT 9999 FEW024/// 21/15 Q1027
cycle: 9

Station Type Date Time Source
EKRK TAF UTC NOAA

Error!

Example: see airport list